UDTRI weather

Aviosuperficie Ultralight Friuli
Trivignano (UD), Friuli-Venezia Giulia, Italy

Public forecast

Using degrees Celsius for public forecast. Weather courtesy of forecast.io.

METAR (pilot weather report)

Closest report is Trieste–Friuli Venezia Giulia Airport, 7.7 nm (14.3 km) SE. Retrieved 2019/07/22 20:20 UTC (0 seconds ago):

LIPQ 222020Z 14004KT CAVOK 27/23 Q1020

TAF (pilot weather forecast)

Closest forecast is Trieste–Friuli Venezia Giulia Airport, 7.7 nm (14.3 km) SE. Retrieved 2019/07/22 18:21 UTC (2 hours ago):

TAF LIPQ 221700Z 2218/2318 VRB06KT CAVOK